FMMI Airport Information

Runway Information
Runway 11 Length 10171 ft width 148 ft
Elevation 4197 ft Threshold 0 ft Heading 99
Runway 29 Length 10171 ft Width 148 ft
Elevation 4117 ft Threshold 0 ft Heading 279
Airport Frequencies
Type TWR Name TWR Frequency 120.1 MHZ
Airport Navaids
Type VOR-DME Name Ivato Frequency 114500 KHZ
Airport Weather Information & NOTAM
ADDS - METARS form results

(0726 UTC 20 November 2018)
Data provider http://aviationweather.gov/metar/data/
 
METAR text: FMMI 200700Z 12005KT 070V180 9999 FEW020 22/13 Q1022 NOSIG
Conditions at: FMMI (ANTANANARIVO/IVA, KM) observed 0700 UTC 20 November 2018
Temperature: 22.0°C (72°F)
Dewpoint: 13.0°C (55°F) [RH = 57%]
Pressure (altimeter): 30.18 inches Hg (1022.0 mb)
Winds: from the ESE (120 degrees) at 6 MPH (5 knots; 2.6 m/s)
Visibility: 6 or more miles (10+ km)
Ceiling: at least 12,000 feet AGL
Clouds: few clouds at 2000 feet AGL
Weather: no significant weather observed at this time

METAR text: FMMI 200630Z 12006KT 070V180 9999 SCT020 22/13 Q1023 NOSIG
Conditions at: FMMI (ANTANANARIVO/IVA, KM) observed 0630 UTC 20 November 2018
Temperature: 22.0°C (72°F)
Dewpoint: 13.0°C (55°F) [RH = 57%]
Pressure (altimeter): 30.21 inches Hg (1023.0 mb)
Winds: from the ESE (120 degrees) at 7 MPH (6 knots; 3.1 m/s)
Visibility: 6 or more miles (10+ km)
Ceiling: at least 12,000 feet AGL
Clouds: scattered clouds at 2000 feet AGL
Weather: no significant weather observed at this time

Forecast for: FMMI (ANTANANARIVO/IVA, KM)
Text: TAF FMMI 200500Z 2006/2112 10005KT 9999 SCT020
Forecast period: 0600 UTC 20 November 2018 to 1200 UTC 21 November 2018
Forecast type: FROM: standard forecast or significant change
Winds: from the E (100 degrees) at 6 MPH (5 knots; 2.6 m/s)
Visibility: 6 or more miles 10+ km)
Ceiling: at least 12,000 feet AGL
Clouds: scattered clouds at 2000 feet AGL
Weather: no significant weather forecast for this period
Text: PROB30
Forecast period: 1500 to 1900 UTC 20 November 2018
Forecast type: TEMPORARY: The following changes expected for less than half the time period
Winds: variable direction winds at 17 MPH (15 knots; 7.7 m/s)
Visibility: missing
Ceiling: unknown
Clouds: missing
Weather: TSRA  (rain associated with thunderstorm(s))